Time;durP1;ratioP1;P1;durP2;ratioP2;P2;SDS_P1;SDS_P2;PMS_P1;PMS_P2;Temp;Humidity;BMP_temperature;BMP_pressure;BME280_temperature;BME280_humidity;BME280_pressure;Samples;Min_cycle;Max_cycle;Signal;HPM_P1;HPM_P2
2022/10/23 00:00:24;;;;;;;3.83;1.63;;;;;;;6.37;100.00;93136.06;2135135;27;20038;-70
2022/10/23 00:01:31;;;;;;;4.28;1.75;;;;;;;6.40;100.00;93135.28;2134932;27;20045;-70
2022/10/23 00:02:32;;;;;;;6.97;1.45;;;;;;;6.38;100.00;93132.25;2135681;27;20026;-70
2022/10/23 00:03:33;;;;;;;4.00;1.70;;;;;;;6.39;100.00;93141.72;2134831;27;20030;-70
2022/10/23 00:04:34;;;;;;;3.00;1.30;;;;;;;6.36;100.00;93139.09;2135816;27;20368;-70
2022/10/23 00:05:39;;;;;;;4.97;1.55;;;;;;;6.37;100.00;93140.63;2135598;27;20487;-70
2022/10/23 00:06:41;;;;;;;6.85;1.70;;;;;;;6.39;100.00;93143.63;2131538;27;20159;-70
2022/10/23 00:07:42;;;;;;;6.13;1.60;;;;;;;6.38;100.00;93131.50;2135760;27;20018;-70
2022/10/23 00:08:46;;;;;;;4.90;2.10;;;;;;;6.33;100.00;93140.63;2131435;27;20043;-70
2022/10/23 00:09:47;;;;;;;5.85;1.92;;;;;;;6.45;100.00;93132.22;2135628;27;20599;-70
2022/10/23 00:10:47;;;;;;;3.67;1.75;;;;;;;6.46;100.00;93132.97;2135779;27;20027;-69
2022/10/23 00:11:50;;;;;;;2.53;1.67;;;;;;;6.43;100.00;93131.84;2135701;27;20038;-70
2022/10/23 00:12:51;;;;;;;2.00;1.63;;;;;;;6.42;100.00;93127.69;2134057;27;20033;-70
2022/10/23 00:13:54;;;;;;;6.53;1.70;;;;;;;6.40;100.00;93129.22;2135470;27;20034;-70
2022/10/23 00:14:56;;;;;;;8.57;2.15;;;;;;;6.45;100.00;93131.44;2133317;27;20114;-70
2022/10/23 00:15:57;;;;;;;4.22;2.00;;;;;;;6.48;100.00;93131.44;2133564;27;20066;-70
2022/10/23 00:16:58;;;;;;;7.60;1.63;;;;;;;6.52;100.00;93128.75;2135485;27;20075;-70
2022/10/23 00:17:59;;;;;;;7.25;2.63;;;;;;;6.55;100.00;93131.41;2135597;27;20031;-70
2022/10/23 00:19:00;;;;;;;3.17;2.00;;;;;;;6.57;100.00;93128.34;2135042;27;20031;-69
2022/10/23 00:20:01;;;;;;;3.75;1.90;;;;;;;6.55;100.00;93133.31;2135608;27;20127;-70
2022/10/23 00:21:03;;;;;;;5.75;1.80;;;;;;;6.62;100.00;93127.19;2134551;27;20011;-69
2022/10/23 00:22:04;;;;;;;3.50;1.90;;;;;;;6.62;100.00;93119.97;2135632;27;20073;-69
2022/10/23 00:23:05;;;;;;;5.05;2.10;;;;;;;6.58;100.00;93124.53;2135410;27;20014;-70
2022/10/23 00:24:07;;;;;;;2.40;1.90;;;;;;;6.57;100.00;93118.47;2130323;27;20051;-70
2022/10/23 00:25:09;;;;;;;6.68;2.00;;;;;;;6.60;100.00;93121.50;2135543;27;20106;-70
2022/10/23 00:26:14;;;;;;;2.47;1.80;;;;;;;6.55;100.00;93126.09;2131572;27;20022;-69
2022/10/23 00:27:15;;;;;;;6.72;2.00;;;;;;;6.62;100.00;93121.88;2136441;27;20022;-70
2022/10/23 00:28:16;;;;;;;4.18;2.13;;;;;;;6.67;100.00;93124.09;2135473;27;20457;-70
2022/10/23 00:29:17;;;;;;;2.65;1.92;;;;;;;6.69;100.00;93119.91;2133379;27;20033;-70
2022/10/23 00:30:18;;;;;;;6.53;1.90;;;;;;;6.72;100.00;93115.75;2132554;27;20512;-70
2022/10/23 00:31:21;;;;;;;2.40;1.67;;;;;;;6.73;100.00;93114.59;2132767;27;20022;-70
2022/10/23 00:32:22;;;;;;;5.65;1.80;;;;;;;6.73;100.00;93114.59;2135405;27;20042;-70
2022/10/23 00:33:23;;;;;;;5.28;1.90;;;;;;;6.71;100.00;93116.88;2135197;27;20042;-70
2022/10/23 00:34:24;;;;;;;5.68;1.65;;;;;;;6.67;100.00;93106.28;2134428;27;20051;-70
2022/10/23 00:35:25;;;;;;;2.45;1.55;;;;;;;6.66;100.00;93114.63;2133615;27;20487;-70
2022/10/23 00:36:26;;;;;;;3.50;1.65;;;;;;;6.69;100.00;93116.50;2135395;27;20038;-69
2022/10/23 00:37:27;;;;;;;3.05;1.50;;;;;;;6.64;100.00;93109.72;2135452;27;20034;-70
2022/10/23 00:38:28;;;;;;;2.70;1.60;;;;;;;6.64;100.00;93109.72;2135543;27;20033;-70
2022/10/23 00:39:29;;;;;;;5.15;1.83;;;;;;;6.60;100.00;93114.28;2138188;27;20058;-70
2022/10/23 00:40:31;;;;;;;5.55;1.80;;;;;;;6.61;100.00;93110.50;2135280;27;20042;-70
2022/10/23 00:41:32;;;;;;;4.03;1.95;;;;;;;6.62;100.00;93116.56;2138754;27;20022;-69
2022/10/23 00:42:33;;;;;;;2.85;2.03;;;;;;;6.64;100.00;93108.97;2135339;27;20368;-70
2022/10/23 00:43:53;;;;;;;5.03;1.85;;;;;;;6.66;100.00;93104.00;2135070;27;20057;-69
2022/10/23 00:44:54;;;;;;;2.08;1.60;;;;;;;6.61;100.00;93109.75;2133176;27;20457;-70
2022/10/23 00:45:55;;;;;;;8.18;1.85;;;;;;;6.62;100.00;93104.03;2135245;27;20030;-70
2022/10/23 00:46:57;;;;;;;6.10;1.70;;;;;;;6.59;100.00;93104.81;2135281;27;20308;-70
2022/10/23 00:48:00;;;;;;;3.05;1.55;;;;;;;6.56;100.00;93103.69;2135338;27;20071;-70
2022/10/23 00:49:03;;;;;;;8.90;1.63;;;;;;;6.65;100.00;93102.50;2134357;27;20499;-70
2022/10/23 00:50:05;;;;;;;4.70;1.50;;;;;;;6.65;100.00;93105.16;2133402;27;20025;-70
2022/10/23 00:51:06;;;;;;;2.53;1.63;;;;;;;6.60;100.00;93105.56;2134971;27;20022;-70
2022/10/23 00:52:11;;;;;;;2.83;1.45;;;;;;;6.61;100.00;93107.84;2135326;27;20101;-70
2022/10/23 00:53:13;;;;;;;5.03;1.52;;;;;;;6.62;100.00;93113.91;2131257;27;20447;-69
2022/10/23 00:54:18;;;;;;;4.85;1.65;;;;;;;6.60;100.00;93111.63;2135192;27;20096;-70
2022/10/23 00:55:21;;;;;;;3.42;1.50;;;;;;;6.61;100.00;93102.53;2134147;27;20413;-70
2022/10/23 00:56:24;;;;;;;4.43;1.70;;;;;;;6.66;100.00;93104.75;2134366;27;20065;-69
2022/10/23 00:57:25;;;;;;;3.35;1.38;;;;;;;6.65;100.00;93105.91;2135387;27;20708;-69
2022/10/23 00:58:26;;;;;;;5.63;1.58;;;;;;;6.67;100.00;93106.28;2135340;27;20109;-70
2022/10/23 00:59:28;;;;;;;1.70;1.50;;;;;;;6.68;100.00;93101.72;2135351;27;20061;-70
2022/10/23 01:00:41;;;;;;;3.42;1.70;;;;;;;6.62;100.00;93101.38;2134332;27;20074;-70
2022/10/23 01:01:42;;;;;;;2.08;1.50;;;;;;;6.65;100.00;93105.16;2131433;27;20030;-70
2022/10/23 01:02:43;;;;;;;5.30;1.48;;;;;;;6.69;100.00;93100.56;2135265;27;20051;-70
2022/10/23 01:03:44;;;;;;;1.65;1.15;;;;;;;6.69;100.00;93103.22;2134928;27;20038;-69
2022/10/23 01:04:45;;;;;;;4.13;1.50;;;;;;;6.63;100.00;93096.81;2135286;27;20030;-69
2022/10/23 01:05:55;;;;;;;2.30;1.30;;;;;;;6.70;100.00;93099.44;2134993;27;20053;-69
2022/10/23 01:07:21;;;;;;;2.90;1.50;;;;;;;6.79;100.00;93097.06;2134505;27;20129;-69
2022/10/23 01:08:30;;;;;;;3.65;1.20;;;;;;;6.84;100.00;93098.56;2134861;27;20030;-70
2022/10/23 01:09:50;;;;;;;5.20;1.50;;;;;;;6.73;100.00;93094.09;2135215;27;20889;-70
2022/10/23 01:11:00;;;;;;;3.60;1.52;;;;;;;6.68;100.00;93091.84;2125350;27;20110;-69
2022/10/23 01:12:14;;;;;;;3.80;1.50;;;;;;;6.75;100.00;93093.69;2126610;27;20047;-70
2022/10/23 01:13:17;;;;;;;2.65;1.50;;;;;;;6.72;100.00;93091.84;2134855;27;20041;-70
2022/10/23 01:14:41;;;;;;;2.65;1.40;;;;;;;6.75;100.00;93088.38;2134977;27;20045;-69
2022/10/23 01:16:04;;;;;;;6.20;1.90;;;;;;;6.80;100.00;93095.91;2131668;27;20049;-69
2022/10/23 01:17:12;;;;;;;5.18;1.65;;;;;;;6.70;100.00;93094.88;2135004;27;20033;-70
2022/10/23 01:18:26;;;;;;;6.28;1.83;;;;;;;6.69;100.00;93093.34;2131282;27;20543;-70
2022/10/23 01:20:07;;;;;;;5.55;1.95;;;;;;;6.76;100.00;93088.00;2135150;27;20057;-69
2022/10/23 01:21:52;;;;;;;6.05;1.98;;;;;;;6.77;100.00;93092.16;2124650;27;20047;-70
2022/10/23 01:23:02;;;;;;;6.82;1.98;;;;;;;6.77;100.00;93091.41;2132476;27;20041;-69
2022/10/23 01:24:32;;;;;;;3.25;1.80;;;;;;;6.76;100.00;93093.31;2135275;27;20019;-69
2022/10/23 01:25:49;;;;;;;7.35;1.80;;;;;;;6.72;100.00;93086.53;2134150;27;20018;-69
2022/10/23 01:27:12;;;;;;;3.78;1.80;;;;;;;6.73;100.00;93088.78;2131841;27;20027;-69
2022/10/23 01:28:20;;;;;;;7.00;2.38;;;;;;;6.82;100.00;93083.78;2131253;27;20028;-70
2022/10/23 01:29:28;;;;;;;5.65;2.40;;;;;;;6.80;100.00;93085.28;2135023;27;20057;-69
2022/10/23 01:30:32;;;;;;;2.35;2.15;;;;;;;6.75;100.00;93088.38;2135124;27;20037;-71
2022/10/23 01:31:38;;;;;;;2.60;2.38;;;;;;;6.78;100.00;93084.94;2125656;27;20030;-70
2022/10/23 01:33:14;;;;;;;5.57;2.28;;;;;;;6.69;100.00;93084.63;2122178;27;20081;-70
2022/10/23 01:34:24;;;;;;;6.93;2.20;;;;;;;6.67;100.00;93079.72;2099795;28;20028;-69
2022/10/23 01:35:34;;;;;;;9.45;2.40;;;;;;;6.66;100.00;93085.41;2130073;27;20049;-70
2022/10/23 01:36:40;;;;;;;3.80;2.10;;;;;;;6.65;100.00;93076.69;2134889;27;20031;-69
2022/10/23 01:37:44;;;;;;;3.97;2.30;;;;;;;6.70;100.00;93086.16;2124015;27;20035;-70
2022/10/23 01:38:52;;;;;;;5.22;2.20;;;;;;;6.72;100.00;93083.88;2135002;27;20019;-70
2022/10/23 01:40:01;;;;;;;8.07;2.08;;;;;;;6.71;100.00;93085.00;2134919;27;20035;-69
2022/10/23 01:41:11;;;;;;;3.67;2.28;;;;;;;6.73;100.00;93080.81;2135165;27;20033;-69
2022/10/23 01:42:18;;;;;;;4.75;2.45;;;;;;;6.73;100.00;93075.50;2131184;27;20158;-70
2022/10/23 01:43:26;;;;;;;2.92;2.20;;;;;;;6.77;100.00;93072.81;2134194;27;20031;-70
2022/10/23 01:44:34;;;;;;;3.08;2.53;;;;;;;6.77;100.00;93078.88;2134976;27;20038;-69
2022/10/23 01:45:43;;;;;;;3.78;2.20;;;;;;;6.69;100.00;93084.63;2132512;27;20098;-69
2022/10/23 01:46:48;;;;;;;6.90;2.35;;;;;;;6.63;100.00;93072.91;2131233;27;20469;-70
2022/10/23 01:47:51;;;;;;;4.63;2.40;;;;;;;6.73;100.00;93080.06;2132302;27;20368;-70
2022/10/23 01:48:54;;;;;;;3.17;2.30;;;;;;;6.73;100.00;93074.75;2132494;27;20030;-70
2022/10/23 01:49:57;;;;;;;3.28;2.20;;;;;;;6.69;100.00;93071.34;2134842;27;20030;-69
2022/10/23 01:51:02;;;;;;;4.72;2.30;;;;;;;6.76;100.00;93069.41;2134820;27;20030;-70
2022/10/23 01:52:07;;;;;;;3.40;2.53;;;;;;;6.85;100.00;93068.97;2134895;27;20035;-70
2022/10/23 01:53:09;;;;;;;3.25;2.30;;;;;;;6.82;100.00;93069.72;2133467;27;20050;-70
2022/10/23 01:54:13;;;;;;;4.38;2.90;;;;;;;6.81;100.00;93071.63;2130769;27;20037;-70
2022/10/23 01:55:16;;;;;;;5.38;2.45;;;;;;;6.87;100.00;93061.34;2134835;27;20026;-70
2022/10/23 01:56:21;;;;;;;7.85;2.70;;;;;;;6.87;100.00;93069.31;2134913;27;20053;-70
2022/10/23 01:57:27;;;;;;;6.60;2.90;;;;;;;6.88;100.00;93062.09;2134851;27;20372;-70
2022/10/23 01:58:30;;;;;;;5.20;2.80;;;;;;;6.84;100.00;93067.44;2135659;27;20037;-70
2022/10/23 01:59:36;;;;;;;8.00;2.97;;;;;;;6.87;100.00;93063.25;2134749;27;20026;-70
2022/10/23 02:00:39;;;;;;;8.40;2.53;;;;;;;6.90;100.00;93063.22;2134784;27;20062;-70
2022/10/23 02:01:45;;;;;;;7.32;2.95;;;;;;;6.92;100.00;93060.16;2130799;27;20050;-70
2022/10/23 02:02:49;;;;;;;6.97;2.90;;;;;;;6.96;100.00;93056.31;2134822;27;20026;-70
2022/10/23 02:03:52;;;;;;;11.35;3.53;;;;;;;6.97;100.00;93054.41;2128849;27;20071;-70
2022/10/23 02:05:02;;;;;;;7.18;2.47;;;;;;;6.92;100.00;93050.28;2134764;27;20026;-70
2022/10/23 02:06:03;;;;;;;4.43;2.90;;;;;;;6.91;100.00;93048.78;2134641;27;20034;-70
2022/10/23 02:07:04;;;;;;;8.35;2.63;;;;;;;6.93;100.00;93054.44;2134446;27;20101;-71
2022/10/23 02:08:06;;;;;;;4.20;2.88;;;;;;;6.93;100.00;93049.13;2134767;27;20030;-70
2022/10/23 02:09:07;;;;;;;10.95;3.13;;;;;;;6.88;100.00;93048.81;2134118;27;20598;-70
2022/10/23 02:10:10;;;;;;;5.03;2.85;;;;;;;6.90;100.00;93049.94;2134747;27;20065;-70
2022/10/23 02:11:20;;;;;;;5.18;2.80;;;;;;;6.89;100.00;93045.78;2130669;27;20018;-70
2022/10/23 02:12:29;;;;;;;10.73;3.58;;;;;;;6.92;100.00;93041.56;2134730;27;20056;-70
2022/10/23 02:13:44;;;;;;;9.30;2.90;;;;;;;6.94;100.00;93040.03;2134351;27;20400;-70
2022/10/23 02:16:14;;;;;;;;;;;;;;;6.97;100.00;93038.47;2110464;27;20617;-69
2022/10/23 02:17:44;;;;;;;5.68;2.90;;;;;;;6.94;100.00;93033.97;2097258;28;19916;-72
2022/10/23 02:18:54;;;;;;;10.70;3.03;;;;;;;6.92;100.00;93033.59;2088735;28;20029;-69
2022/10/23 02:19:58;;;;;;;6.72;2.60;;;;;;;6.91;100.00;93030.19;2100104;28;20086;-69
2022/10/23 02:21:10;;;;;;;6.25;2.95;;;;;;;6.91;100.00;93030.19;2104023;28;20044;-71
2022/10/23 02:22:29;;;;;;;9.00;3.00;;;;;;;6.93;100.00;93030.53;2096219;28;20032;-71
2022/10/23 02:23:36;;;;;;;4.65;2.83;;;;;;;6.88;100.00;93041.59;2103559;28;20040;-69
2022/10/23 02:24:44;;;;;;;7.65;2.55;;;;;;;6.93;100.00;93033.19;2102250;28;20020;-69
2022/10/23 02:25:53;;;;;;;5.18;2.72;;;;;;;7.00;100.00;93035.78;2096947;28;20394;-69
2022/10/23 02:26:59;;;;;;;6.95;2.90;;;;;;;7.01;100.00;93034.63;2101912;28;20052;-69
2022/10/23 02:28:06;;;;;;;6.05;3.13;;;;;;;6.95;100.00;93036.22;2103808;28;20028;-71
2022/10/23 02:29:33;;;;;;;4.03;2.90;;;;;;;7.02;100.00;93030.06;2103821;28;20028;-71
2022/10/23 02:30:39;;;;;;;7.10;2.90;;;;;;;6.96;100.00;93037.72;2098464;28;20490;-69
2022/10/23 02:31:40;;;;;;;7.20;2.63;;;;;;;6.94;100.00;93032.06;2095756;28;20050;-69
2022/10/23 02:32:46;;;;;;;7.72;2.90;;;;;;;6.93;100.00;93027.88;2103747;28;20472;-71
2022/10/23 02:33:47;;;;;;;7.18;2.80;;;;;;;6.91;100.00;93030.19;2103400;28;20024;-71
2022/10/23 02:34:49;;;;;;;8.23;2.53;;;;;;;6.90;100.00;93028.69;2103499;28;20039;-71
2022/10/23 02:35:50;;;;;;;7.38;2.55;;;;;;;6.90;100.00;93033.25;2101197;28;20459;-71
2022/10/23 02:36:51;;;;;;;6.78;2.70;;;;;;;6.88;100.00;93030.97;2103571;28;20064;-71
2022/10/23 02:37:58;;;;;;;8.27;2.90;;;;;;;6.90;100.00;93033.25;2103760;28;20024;-71
2022/10/23 02:38:59;;;;;;;3.00;2.55;;;;;;;6.94;100.00;93037.38;2103659;28;20028;-71
2022/10/23 02:40:02;;;;;;;6.05;2.78;;;;;;;6.97;100.00;93027.84;2103797;28;20068;-70
2022/10/23 02:41:15;;;;;;;8.15;2.97;;;;;;;6.90;100.00;93031.34;2099570;28;20067;-71
2022/10/23 02:42:28;;;;;;;8.98;2.42;;;;;;;6.87;100.00;93026.81;2097249;28;20504;-70
2022/10/23 02:43:38;;;;;;;4.47;2.42;;;;;;;6.92;100.00;93025.63;2103361;28;20112;-71
2022/10/23 02:44:52;;;;;;;8.70;2.45;;;;;;;6.89;100.00;93024.53;2103535;28;20086;-72
2022/10/23 02:46:13;;;;;;;4.70;2.60;;;;;;;6.90;100.00;93027.94;2098376;28;20028;-71
2022/10/23 02:47:52;;;;;;;3.20;2.17;;;;;;;6.87;100.00;93020.75;2096774;28;20047;-71
2022/10/23 02:49:23;;;;;;;5.53;2.30;;;;;;;6.86;100.00;93027.19;2072921;28;20045;-71
2022/10/23 02:50:42;;;;;;;7.22;1.92;;;;;;;6.82;100.00;93022.66;2090842;28;20487;-71
2022/10/23 02:51:57;;;;;;;3.97;2.03;;;;;;;6.81;100.00;93023.06;2096428;28;20366;-71
2022/10/23 02:53:24;;;;;;;4.25;2.22;;;;;;;6.81;100.00;93023.81;2103351;28;20020;-71
2022/10/23 02:54:51;;;;;;;5.65;1.95;;;;;;;6.83;100.00;93018.09;2065042;28;20042;-71
2022/10/23 02:56:22;;;;;;;6.57;2.47;;;;;;;6.83;100.00;93012.78;2103634;28;20036;-70
2022/10/23 02:58:08;;;;;;;2.60;1.98;;;;;;;6.79;100.00;93020.03;2099044;28;20522;-71
2022/10/23 02:59:16;;;;;;;3.70;2.03;;;;;;;6.73;100.00;93018.97;2075631;28;20128;-71
2022/10/23 03:00:20;;;;;;;7.00;2.08;;;;;;;6.73;100.00;93017.06;2097699;28;20052;-71
2022/10/23 03:01:28;;;;;;;3.35;2.22;;;;;;;6.68;100.00;93019.41;2103535;28;20704;-70
2022/10/23 03:02:38;;;;;;;4.40;2.25;;;;;;;6.65;100.00;93018.25;2093042;28;20115;-71
2022/10/23 03:03:44;;;;;;;4.18;2.47;;;;;;;6.63;100.00;93017.13;2095800;28;20032;-71
2022/10/23 03:04:45;;;;;;;8.32;2.33;;;;;;;6.60;100.00;93015.28;2096758;28;20374;-71
2022/10/23 03:05:46;;;;;;;6.45;2.20;;;;;;;6.58;100.00;93010.34;2103511;28;20694;-71
2022/10/23 03:06:49;;;;;;;4.75;2.42;;;;;;;6.54;100.00;93015.72;2101611;28;20028;-71
2022/10/23 03:07:50;;;;;;;9.65;2.38;;;;;;;6.46;100.00;93011.59;2100841;28;20028;-70
2022/10/23 03:08:57;;;;;;;6.47;2.33;;;;;;;6.50;100.00;93020.28;2103563;28;20077;-71
2022/10/23 03:09:58;;;;;;;6.90;2.13;;;;;;;6.51;100.00;93016.50;2103441;28;20107;-72
2022/10/23 03:10:58;;;;;;;3.10;1.75;;;;;;;6.41;100.00;93017.34;2094593;28;20032;-71
2022/10/23 03:11:59;;;;;;;4.70;2.38;;;;;;;6.38;100.00;93015.44;2092552;28;20119;-71
2022/10/23 03:13:00;;;;;;;4.85;1.88;;;;;;;6.41;100.00;93020.00;2101785;28;20070;-72
2022/10/23 03:14:02;;;;;;;5.20;2.63;;;;;;;6.38;100.00;93015.44;2103557;28;20024;-71
2022/10/23 03:15:04;;;;;;;4.70;2.00;;;;;;;6.39;100.00;93016.19;2099266;28;20470;-71
2022/10/23 03:16:06;;;;;;;7.82;2.08;;;;;;;6.41;100.00;93012.03;2102155;28;20097;-70
2022/10/23 03:17:08;;;;;;;6.20;1.85;;;;;;;6.44;100.00;93013.13;2102289;28;20093;-70
2022/10/23 03:18:10;;;;;;;4.93;2.30;;;;;;;6.40;100.00;93009.75;2103462;28;20028;-70
2022/10/23 03:19:11;;;;;;;6.15;2.15;;;;;;;6.40;100.00;93005.19;2095688;28;20715;-71
2022/10/23 03:20:12;;;;;;;4.68;2.15;;;;;;;6.41;100.00;93004.06;2103426;28;20020;-71
2022/10/23 03:21:13;;;;;;;8.50;2.17;;;;;;;6.41;100.00;93001.41;2103308;28;20120;-71
2022/10/23 03:22:14;;;;;;;2.33;1.90;;;;;;;6.42;100.00;93002.91;2103396;28;20375;-70
2022/10/23 03:23:15;;;;;;;5.03;2.20;;;;;;;6.39;100.00;93000.28;2098728;28;20029;-70
2022/10/23 03:24:16;;;;;;;4.57;1.83;;;;;;;6.36;100.00;92999.16;2103272;28;20367;-71
2022/10/23 03:25:17;;;;;;;9.77;2.20;;;;;;;6.39;100.00;93002.94;2103313;28;20024;-71
2022/10/23 03:26:18;;;;;;;7.22;2.20;;;;;;;6.41;100.00;92997.97;2103264;28;20074;-71
2022/10/23 03:27:19;;;;;;;8.48;2.55;;;;;;;6.38;100.00;93002.19;2096846;28;20040;-71
2022/10/23 03:28:20;;;;;;;5.82;1.75;;;;;;;6.39;100.00;92998.38;2094551;28;20578;-71
2022/10/23 03:29:21;;;;;;;9.07;2.03;;;;;;;6.37;100.00;92995.38;2097828;28;20028;-70
2022/10/23 03:30:22;;;;;;;2.63;1.90;;;;;;;6.38;100.00;92994.22;2097638;28;20406;-71
2022/10/23 03:31:23;;;;;;;5.30;1.88;;;;;;;6.35;100.00;93005.59;2097877;28;20082;-70
2022/10/23 03:32:24;;;;;;;9.82;2.17;;;;;;;6.36;100.00;92999.16;2097789;28;20070;-71
2022/10/23 03:33:25;;;;;;;6.45;1.67;;;;;;;6.35;100.00;92995.00;2097262;28;20067;-71
2022/10/23 03:34:26;;;;;;;3.97;1.80;;;;;;;6.40;100.00;93001.78;2090649;28;20402;-71
2022/10/23 03:35:27;;;;;;;3.85;1.63;;;;;;;6.40;100.00;92994.56;2095774;28;20033;-71
2022/10/23 03:36:28;;;;;;;5.00;1.88;;;;;;;6.45;100.00;92994.16;2097734;28;20043;-71
2022/10/23 03:37:29;;;;;;;2.90;1.65;;;;;;;6.42;100.00;93005.56;2097692;28;20060;-71
2022/10/23 03:38:30;;;;;;;6.05;2.03;;;;;;;6.40;100.00;92997.22;2097667;28;20438;-71
2022/10/23 03:39:31;;;;;;;5.25;1.80;;;;;;;6.42;100.00;92999.50;2094452;28;20025;-71
2022/10/23 03:40:32;;;;;;;9.57;1.65;;;;;;;6.38;100.00;93002.19;2097716;28;20028;-70
2022/10/23 03:41:33;;;;;;;2.45;1.52;;;;;;;6.46;100.00;92994.91;2097768;28;20039;-71
2022/10/23 03:42:34;;;;;;;3.70;1.90;;;;;;;6.48;100.00;93000.56;2097636;28;20063;-70
2022/10/23 03:43:35;;;;;;;11.63;2.67;;;;;;;6.55;100.00;93003.94;2097274;28;20024;-71
2022/10/23 03:44:36;;;;;;;7.25;2.00;;;;;;;6.57;100.00;92998.97;2095957;28;20455;-71
2022/10/23 03:45:37;;;;;;;6.88;1.50;;;;;;;6.66;100.00;92997.78;2091470;28;20028;-71
2022/10/23 03:46:39;;;;;;;4.47;1.85;;;;;;;6.63;100.00;92998.53;2096738;28;20033;-71
2022/10/23 03:47:40;;;;;;;7.43;2.03;;;;;;;6.61;100.00;92995.53;2089481;28;20108;-71
2022/10/23 03:48:41;;;;;;;5.30;2.13;;;;;;;6.66;100.00;92992.47;2097649;28;20032;-71
2022/10/23 03:49:42;;;;;;;7.93;1.90;;;;;;;6.69;100.00;92994.34;2095750;28;20034;-70
2022/10/23 03:50:43;;;;;;;4.05;1.83;;;;;;;6.63;100.00;92993.22;2097556;28;20043;-70
2022/10/23 03:51:50;;;;;;;4.55;1.25;;;;;;;6.58;100.00;92986.44;2097674;28;20119;-70
2022/10/23 03:52:51;;;;;;;4.10;2.25;;;;;;;6.56;100.00;92989.50;2097646;28;20088;-70
2022/10/23 03:53:52;;;;;;;9.85;2.10;;;;;;;6.60;100.00;92994.03;2097343;28;20086;-72
2022/10/23 03:54:53;;;;;;;1.98;1.80;;;;;;;6.61;100.00;92992.88;2095319;28;20028;-71
2022/10/23 03:55:54;;;;;;;9.60;2.03;;;;;;;6.61;100.00;92995.53;2095412;28;20039;-71
2022/10/23 03:56:56;;;;;;;2.83;1.75;;;;;;;6.59;100.00;92990.63;2097492;28;20083;-70
2022/10/23 03:57:57;;;;;;;3.55;1.70;;;;;;;6.54;100.00;92991.81;2097410;28;20134;-70
2022/10/23 03:58:58;;;;;;;7.10;1.95;;;;;;;6.53;100.00;92997.50;2097564;28;20467;-71
2022/10/23 03:59:59;;;;;;;2.97;1.70;;;;;;;6.55;100.00;92992.56;2096611;28;20493;-71
2022/10/23 04:00:59;;;;;;;4.07;1.77;;;;;;;6.52;100.00;92994.09;2096080;28;20040;-71
2022/10/23 04:02:00;;;;;;;6.10;2.10;;;;;;;6.48;100.00;92996.03;2097477;28;20020;-70
2022/10/23 04:03:01;;;;;;;4.68;1.77;;;;;;;6.49;100.00;92992.22;2097164;28;20548;-71
2022/10/23 04:04:03;;;;;;;5.22;2.30;;;;;;;6.48;100.00;92993.38;2088526;28;20099;-72
2022/10/23 04:05:05;;;;;;;2.35;2.00;;;;;;;6.46;100.00;92998.31;2088603;28;20103;-71
2022/10/23 04:06:06;;;;;;;2.90;1.73;;;;;;;6.46;100.00;92990.34;2092614;28;20025;-70
2022/10/23 04:07:07;;;;;;;3.65;1.70;;;;;;;6.50;100.00;92996.41;2097489;28;20037;-70
2022/10/23 04:08:09;;;;;;;3.70;1.83;;;;;;;6.48;100.00;92989.97;2097478;28;20032;-71
2022/10/23 04:09:10;;;;;;;3.15;1.90;;;;;;;6.45;100.00;92994.16;2089457;28;20031;-71
2022/10/23 04:10:11;;;;;;;4.43;2.00;;;;;;;6.42;100.00;92991.53;2088426;28;20032;-70
2022/10/23 04:11:12;;;;;;;4.18;1.70;;;;;;;6.39;100.00;92990.41;2085517;28;20056;-71
2022/10/23 04:12:13;;;;;;;8.05;2.05;;;;;;;6.43;100.00;92993.78;2097481;28;20060;-71
2022/10/23 04:13:14;;;;;;;3.85;2.17;;;;;;;6.43;100.00;92983.16;2096928;28;20033;-71
2022/10/23 04:14:15;;;;;;;3.65;1.80;;;;;;;6.40;100.00;92980.53;2097407;28;20400;-71
2022/10/23 04:15:16;;;;;;;6.22;2.28;;;;;;;6.43;100.00;92979.75;2091257;28;20052;-71
2022/10/23 04:16:17;;;;;;;5.53;1.83;;;;;;;6.39;100.00;92979.03;2095433;28;20617;-70
2022/10/23 04:17:18;;;;;;;2.83;1.70;;;;;;;6.49;100.00;92978.94;2097353;28;20040;-71
2022/10/23 04:18:19;;;;;;;2.35;1.75;;;;;;;6.51;100.00;92981.97;2097392;28;20048;-71
2022/10/23 04:19:20;;;;;;;1.85;1.50;;;;;;;6.57;100.00;92988.34;2097738;28;20737;-71
2022/10/23 04:20:21;;;;;;;2.13;1.52;;;;;;;6.74;100.00;92984.03;2097589;28;20025;-71
2022/10/23 04:21:22;;;;;;;1.65;1.50;;;;;;;6.74;100.00;92988.59;2087305;28;20048;-71
2022/10/23 04:22:23;;;;;;;4.32;1.80;;;;;;;6.69;100.00;92995.09;2086316;28;20487;-71
2022/10/23 04:23:23;;;;;;;6.18;1.52;;;;;;;6.62;100.00;92986.41;2097085;28;20494;-71
2022/10/23 04:24:25;;;;;;;2.13;1.40;;;;;;;6.61;100.00;92987.56;2097310;28;20043;-71
2022/10/23 04:25:26;;;;;;;10.63;2.17;;;;;;;6.62;100.00;92989.06;2097381;28;20111;-71
2022/10/23 04:26:26;;;;;;;4.00;1.70;;;;;;;6.57;100.00;92990.25;2096897;28;20418;-71
2022/10/23 04:27:27;;;;;;;6.85;1.80;;;;;;;6.43;100.00;92980.50;2094086;28;20044;-71
2022/10/23 04:28:28;;;;;;;2.85;1.80;;;;;;;6.47;100.00;92980.50;2097232;28;20064;-71
2022/10/23 04:29:31;;;;;;;2.53;1.60;;;;;;;6.49;100.00;92983.50;2097294;28;20159;-71
2022/10/23 04:30:32;;;;;;;6.93;1.73;;;;;;;6.54;100.00;92988.38;2088336;28;20556;-71
2022/10/23 04:31:33;;;;;;;3.97;1.40;;;;;;;6.69;100.00;92983.72;2088240;28;20025;-71
2022/10/23 04:32:38;;;;;;;6.15;1.42;;;;;;;6.73;100.00;92981.78;2092566;28;20024;-71
2022/10/23 04:33:39;;;;;;;3.42;1.35;;;;;;;6.62;100.00;92989.81;2096844;28;20769;-71
2022/10/23 04:34:40;;;;;;;4.85;1.40;;;;;;;6.56;100.00;92988.75;2089246;28;20106;-71
2022/10/23 04:35:42;;;;;;;2.25;1.50;;;;;;;6.53;100.00;92987.63;2088263;28;20052;-71
2022/10/23 04:36:43;;;;;;;4.30;1.40;;;;;;;6.52;100.00;92993.34;2088425;28;20040;-70
2022/10/23 04:37:44;;;;;;;4.18;1.45;;;;;;;6.44;100.00;92989.97;2094295;28;20382;-71
2022/10/23 04:38:46;;;;;;;5.03;1.42;;;;;;;6.42;100.00;92984.31;2096647;28;20343;-71
2022/10/23 04:39:47;;;;;;;5.40;2.30;;;;;;;6.43;100.00;92988.47;2096988;28;20528;-70
2022/10/23 04:40:48;;;;;;;5.18;1.40;;;;;;;6.42;100.00;92989.63;2097215;28;20105;-70
2022/10/23 04:41:49;;;;;;;4.97;1.60;;;;;;;6.37;100.00;92987.41;2097024;28;20340;-70
2022/10/23 04:42:50;;;;;;;3.22;1.90;;;;;;;6.30;100.00;92982.88;2095802;28;20484;-70
2022/10/23 04:43:51;;;;;;;7.65;1.40;;;;;;;6.30;100.00;92982.88;2096789;28;20024;-70
2022/10/23 04:44:52;;;;;;;7.78;1.70;;;;;;;6.32;100.00;92979.84;2096022;28;20344;-70
2022/10/23 04:45:53;;;;;;;3.72;1.55;;;;;;;6.36;100.00;92975.25;2092585;28;20466;-71
2022/10/23 04:46:54;;;;;;;1.83;1.40;;;;;;;6.35;100.00;92975.66;2097107;28;20439;-70
2022/10/23 04:47:55;;;;;;;3.97;1.40;;;;;;;6.34;100.00;92976.81;2093902;28;20033;-71
2022/10/23 04:48:56;;;;;;;2.95;1.48;;;;;;;6.38;100.00;92974.88;2097107;28;20093;-71
2022/10/23 04:49:57;;;;;;;4.60;1.58;;;;;;;6.34;100.00;92980.22;2097160;28;20039;-71
2022/10/23 04:51:00;;;;;;;2.05;1.27;;;;;;;6.33;100.00;92985.94;2097049;28;20024;-70
2022/10/23 04:52:01;;;;;;;2.67;1.60;;;;;;;6.36;100.00;92980.56;2096982;28;20585;-71
2022/10/23 04:53:03;;;;;;;4.20;1.50;;;;;;;6.38;100.00;92983.59;2096692;28;20339;-71
2022/10/23 04:54:04;;;;;;;2.00;1.27;;;;;;;6.36;100.00;92980.56;2097112;28;20074;-71
2022/10/23 04:55:07;;;;;;;13.50;2.55;;;;;;;6.61;100.00;92982.25;2088129;28;20025;-70
2022/10/23 04:56:12;;;;;;;3.22;1.40;;;;;;;6.71;100.00;92992.03;2088493;28;20032;-71
2022/10/23 04:57:14;;;;;;;7.10;1.40;;;;;;;6.73;100.00;92981.78;2089405;28;20109;-70
2022/10/23 04:58:15;;;;;;;6.38;1.25;;;;;;;6.57;100.00;92982.28;2084944;28;20439;-70
2022/10/23 04:59:16;;;;;;;7.28;1.40;;;;;;;6.50;100.00;92980.47;2088348;28;20025;-71
2022/10/23 05:00:18;;;;;;;5.80;1.58;;;;;;;6.47;100.00;92983.91;2097351;28;20052;-71
2022/10/23 05:01:19;;;;;;;7.50;1.70;;;;;;;6.60;100.00;92978.09;2097156;28;20383;-71
2022/10/23 05:02:20;;;;;;;6.07;1.58;;;;;;;6.54;100.00;92980.41;2097097;28;20028;-70
2022/10/23 05:03:22;;;;;;;3.00;1.25;;;;;;;6.51;100.00;92979.31;2094039;28;20585;-72
2022/10/23 05:04:23;;;;;;;3.45;1.45;;;;;;;6.46;100.00;92985.06;2096877;28;20115;-71
2022/10/23 05:05:24;;;;;;;1.55;1.45;;;;;;;6.45;100.00;92977.47;2096997;28;20115;-71
2022/10/23 05:06:25;;;;;;;2.15;1.50;;;;;;;6.45;100.00;92978.25;2087840;28;20029;-71
2022/10/23 05:07:26;;;;;;;7.90;1.60;;;;;;;6.44;100.00;92981.25;2088158;28;20035;-71